Time;durP1;ratioP1;P1;durP2;ratioP2;P2;SDS_P1;SDS_P2;PMS_P1;PMS_P2;Temp;Humidity;BMP_temperature;BMP_pressure;BME280_temperature;BME280_humidity;BME280_pressure;Samples;Min_cycle;Max_cycle;Signal;HPM_P1;HPM_P2
2023/10/18 00:01:55;;;;;;;1.60;1.60;;;19.60;69.60;;;;;;5098577;27;43455;-70
2023/10/18 00:04:23;;;;;;;1.50;1.50;;;19.50;69.50;;;;;;5109007;27;43880;-70
2023/10/18 00:06:54;;;;;;;1.43;1.43;;;19.50;69.70;;;;;;5100385;27;43949;-70
2023/10/18 00:09:45;;;;;;;1.50;1.50;;;19.50;69.80;;;;;;5108818;27;43688;-70
2023/10/18 00:12:16;;;;;;;1.50;1.50;;;19.40;70.00;;;;;;5108661;27;43593;-70
2023/10/18 00:14:45;;;;;;;1.50;1.40;;;19.40;70.40;;;;;;5108293;27;43476;-70
2023/10/18 00:17:13;;;;;;;1.50;1.50;;;19.30;70.30;;;;;;5108995;27;43432;-70
2023/10/18 00:19:41;;;;;;;1.43;1.43;;;19.30;70.30;;;;;;5108782;27;43907;-70
2023/10/18 00:22:11;;;;;;;1.53;1.53;;;19.30;70.40;;;;;;5108471;27;43457;-70
2023/10/18 00:24:40;;;;;;;1.43;1.43;;;19.30;70.50;;;;;;5109091;27;43319;-70
2023/10/18 00:27:09;;;;;;;1.43;1.43;;;19.20;70.60;;;;;;5109880;27;43497;-74
2023/10/18 00:29:38;;;;;;;1.40;1.40;;;19.20;70.70;;;;;;5111721;27;43866;-70
2023/10/18 00:32:06;;;;;;;1.60;1.60;;;19.30;70.70;;;;;;5110903;27;44712;-70
2023/10/18 00:34:34;;;;;;;1.60;1.60;;;19.40;70.40;;;;;;5110841;27;43982;-70
2023/10/18 00:37:04;;;;;;;1.60;1.60;;;19.50;69.90;;;;;;5111106;27;43403;-70
2023/10/18 00:39:33;;;;;;;1.40;1.40;;;19.60;69.60;;;;;;5110517;27;46252;-70
2023/10/18 00:42:23;;;;;;;1.50;1.50;;;19.60;69.40;;;;;;5112087;27;43432;-70
2023/10/18 00:44:55;;;;;;;1.23;1.23;;;19.50;69.50;;;;;;5116802;27;43365;-70
2023/10/18 00:47:23;;;;;;;1.30;1.30;;;19.50;69.80;;;;;;5128228;27;43447;-69
2023/10/18 00:49:53;;;;;;;1.40;1.40;;;19.40;70.00;;;;;;5128080;27;43663;-70
2023/10/18 00:52:23;;;;;;;1.40;1.40;;;19.30;70.20;;;;;;5125973;27;43472;-70
2023/10/18 00:54:51;;;;;;;1.37;1.37;;;19.30;70.30;;;;;;5126841;27;43368;-69
2023/10/18 00:57:21;;;;;;;1.40;1.40;;;19.30;70.30;;;;;;5107959;27;43415;-69
2023/10/18 01:00:07;;;;;;;1.50;1.50;;;19.20;70.40;;;;;;5124462;27;44286;-68
2023/10/18 01:02:39;;;;;;;1.60;1.60;;;19.20;70.50;;;;;;5143065;27;44603;-69
2023/10/18 01:05:13;;;;;;;1.40;1.40;;;19.20;70.80;;;;;;5126969;27;43450;-69
2023/10/18 01:07:41;;;;;;;1.30;1.30;;;19.20;70.80;;;;;;5126551;27;43468;-68
2023/10/18 01:10:10;;;;;;;1.60;1.60;;;19.10;70.60;;;;;;5127506;27;43616;-70
2023/10/18 01:12:38;;;;;;;1.57;1.57;;;19.10;70.70;;;;;;5126389;27;44901;-69
2023/10/18 01:15:10;;;;;;;1.60;1.60;;;19.10;70.80;;;;;;5126770;27;43440;-69
2023/10/18 01:17:42;;;;;;;1.27;1.27;;;19.10;71.00;;;;;;5126923;27;43434;-69
2023/10/18 01:20:33;;;;;;;1.70;1.60;;;19.10;70.90;;;;;;5127873;27;43853;-69
2023/10/18 01:23:01;;;;;;;1.40;1.40;;;19.20;70.60;;;;;;5126854;27;44581;-69
2023/10/18 01:25:30;;;;;;;1.50;1.50;;;19.40;70.10;;;;;;5125962;27;43393;-69
2023/10/18 01:27:59;;;;;;;1.50;1.50;;;19.50;69.70;;;;;;5126767;27;43470;-68
2023/10/18 01:30:29;;;;;;;1.40;1.40;;;19.50;69.50;;;;;;5126398;27;45686;-70
2023/10/18 01:32:57;;;;;;;1.50;1.50;;;19.50;69.60;;;;;;5126582;27;45122;-70
2023/10/18 01:35:25;;;;;;;1.30;1.30;;;19.40;69.70;;;;;;5127987;27;43474;-70
2023/10/18 01:37:53;;;;;;;1.50;1.50;;;19.40;70.00;;;;;;5126833;27;43482;-70
2023/10/18 01:40:23;;;;;;;1.50;1.50;;;19.30;70.30;;;;;;5127515;27;44622;-70
2023/10/18 01:42:56;;;;;;;1.40;1.40;;;19.20;70.10;;;;;;5128103;27;43843;-70
2023/10/18 01:45:26;;;;;;;1.70;1.60;;;19.20;70.30;;;;;;5127093;27;43410;-70
2023/10/18 01:47:57;;;;;;;1.40;1.40;;;19.20;70.40;;;;;;5126338;27;43478;-69
2023/10/18 01:50:27;;;;;;;1.40;1.40;;;19.20;70.50;;;;;;5127514;27;45666;-70
2023/10/18 01:52:55;;;;;;;1.50;1.50;;;19.10;70.80;;;;;;5120937;27;44721;-69
2023/10/18 01:55:23;;;;;;;1.63;1.63;;;19.10;70.70;;;;;;5123678;27;43381;-69
2023/10/18 01:57:52;;;;;;;1.40;1.40;;;19.20;70.50;;;;;;5125996;27;43374;-69
2023/10/18 02:00:25;;;;;;;1.43;1.43;;;19.30;70.20;;;;;;5126309;27;45363;-69
2023/10/18 02:02:53;;;;;;;1.43;1.43;;;19.30;70.00;;;;;;5126456;27;43382;-69
2023/10/18 02:05:21;;;;;;;1.20;1.20;;;19.30;70.20;;;;;;5125828;27;43387;-69
2023/10/18 02:07:49;;;;;;;1.30;1.30;;;19.20;70.20;;;;;;5127559;27;43442;-69
2023/10/18 02:10:21;;;;;;;1.47;1.47;;;19.20;70.20;;;;;;5125901;27;45546;-69
2023/10/18 02:12:50;;;;;;;1.33;1.33;;;19.20;70.20;;;;;;5109938;27;44769;-70
2023/10/18 02:15:20;;;;;;;1.30;1.30;;;19.20;70.30;;;;;;5116553;27;43479;-72
2023/10/18 02:17:56;;;;;;;1.20;1.20;;;19.10;70.40;;;;;;5109917;27;43857;-72
2023/10/18 02:20:28;;;;;;;1.30;1.30;;;19.10;70.60;;;;;;5109561;27;46420;-72
2023/10/18 02:22:59;;;;;;;1.60;1.60;;;19.10;70.80;;;;;;5109392;27;44749;-71
2023/10/18 02:25:43;;;;;;;1.30;1.30;;;19.10;70.70;;;;;;5096697;27;43896;-72
2023/10/18 02:28:22;;;;;;;1.30;1.30;;;19.10;70.80;;;;;;5109574;27;43421;-71
2023/10/18 02:30:58;;;;;;;1.50;1.50;;;19.10;71.50;;;;;;5109737;27;43675;-72
2023/10/18 02:33:30;;;;;;;1.30;1.30;;;19.00;70.90;;;;;;5110071;27;43375;-72
2023/10/18 02:35:59;;;;;;;1.60;1.60;;;19.00;70.90;;;;;;5110593;27;43357;-71
2023/10/18 02:38:27;;;;;;;1.50;1.50;;;19.10;70.80;;;;;;5097238;27;43525;-71
2023/10/18 02:40:56;;;;;;;1.20;1.20;;;19.20;70.30;;;;;;5108948;27;45808;-71
2023/10/18 02:43:25;;;;;;;1.20;1.20;;;19.20;70.00;;;;;;5109016;27;44757;-71
2023/10/18 02:45:54;;;;;;;1.43;1.43;;;19.20;70.00;;;;;;5104232;27;43401;-72
2023/10/18 02:48:25;;;;;;;1.50;1.50;;;19.20;70.20;;;;;;5108729;27;43580;-72
2023/10/18 02:50:57;;;;;;;1.67;1.60;;;19.20;70.20;;;;;;5099389;27;45682;-71
2023/10/18 02:53:25;;;;;;;1.40;1.40;;;19.20;70.20;;;;;;5093887;27;45012;-71
2023/10/18 02:55:57;;;;;;;1.20;1.20;;;19.20;70.20;;;;;;5109224;27;43442;-72
2023/10/18 02:58:28;;;;;;;1.30;1.30;;;19.10;70.20;;;;;;5108927;27;43530;-72
2023/10/18 03:01:05;;;;;;;1.60;1.60;;;19.10;71.10;;;;;;5102793;27;44002;-71
2023/10/18 03:03:33;;;;;;;1.40;1.40;;;19.10;70.50;;;;;;5108207;27;45001;-71
2023/10/18 03:06:06;;;;;;;1.30;1.30;;;19.10;70.50;;;;;;5110829;27;43452;-66
2023/10/18 03:08:34;;;;;;;1.50;1.50;;;19.10;70.50;;;;;;5110901;27;43562;-66
2023/10/18 03:11:04;;;;;;;1.57;1.47;;;19.10;70.60;;;;;;5110403;27;44583;-65
2023/10/18 03:13:32;;;;;;;1.30;1.30;;;19.00;70.50;;;;;;5110324;27;44348;-66
2023/10/18 03:16:15;;;;;;;1.33;1.33;;;19.00;70.80;;;;;;5110707;27;44027;-66
2023/10/18 03:18:44;;;;;;;1.60;1.60;;;19.10;70.70;;;;;;5112219;27;43546;-67
2023/10/18 03:21:20;;;;;;;1.30;1.30;;;19.20;70.30;;;;;;5110084;27;45604;-66
2023/10/18 03:23:51;;;;;;;1.30;1.30;;;19.20;69.80;;;;;;5110664;27;44755;-65
2023/10/18 03:26:22;;;;;;;1.50;1.50;;;19.20;69.80;;;;;;5108937;27;43536;-68
2023/10/18 03:28:52;;;;;;;1.40;1.40;;;19.20;70.00;;;;;;5108654;27;43564;-69
2023/10/18 03:31:27;;;;;;;1.40;1.40;;;19.20;70.00;;;;;;5107661;27;46021;-68
2023/10/18 03:34:01;;;;;;;1.33;1.33;;;19.20;69.90;;;;;;5107910;27;46043;-68
2023/10/18 03:36:32;;;;;;;1.23;1.23;;;19.20;70.00;;;;;;5108191;27;43419;-69
2023/10/18 03:39:11;;;;;;;1.43;1.43;;;19.20;70.10;;;;;;5108511;27;43443;-68
2023/10/18 03:41:41;;;;;;;1.30;1.30;;;19.10;70.30;;;;;;5107493;27;46101;-69
2023/10/18 03:44:13;;;;;;;1.37;1.37;;;19.10;70.30;;;;;;5107760;27;45052;-69
2023/10/18 03:46:48;;;;;;;1.40;1.40;;;19.10;70.20;;;;;;5103180;27;43396;-68
2023/10/18 03:52:16;;;;;;;1.47;1.37;;;19.10;70.30;;;;;;5100935;27;43882;-69
2023/10/18 03:54:46;;;;;;;1.40;1.40;;;19.00;70.50;;;;;;5107765;27;44796;-69
2023/10/18 03:57:18;;;;;;;1.60;1.60;;;19.10;70.80;;;;;;5107800;27;43498;-69
2023/10/18 03:59:46;;;;;;;1.50;1.50;;;19.10;70.50;;;;;;5108127;27;44074;-69
2023/10/18 04:02:27;;;;;;;1.30;1.30;;;19.20;70.20;;;;;;5123905;27;45632;-69
2023/10/18 04:05:00;;;;;;;1.30;1.30;;;19.20;69.80;;;;;;5109198;27;44029;-69
2023/10/18 04:07:29;;;;;;;1.60;1.60;;;19.20;69.80;;;;;;5109134;27;43975;-69
2023/10/18 04:10:12;;;;;;;1.57;1.57;;;19.20;70.10;;;;;;5108987;27;43391;-70
2023/10/18 04:12:43;;;;;;;1.40;1.40;;;19.20;69.90;;;;;;5108279;27;44988;-70
2023/10/18 04:15:21;;;;;;;1.33;1.33;;;19.20;69.90;;;;;;5109305;27;43254;-70
2023/10/18 04:18:02;;;;;;;1.50;1.50;;;19.20;69.90;;;;;;5100246;27;43438;-70
2023/10/18 04:20:32;;;;;;;1.40;1.40;;;19.10;70.10;;;;;;5109355;27;43899;-70
2023/10/18 04:23:02;;;;;;;1.50;1.50;;;19.10;70.40;;;;;;5108696;27;44202;-70
2023/10/18 04:25:31;;;;;;;1.50;1.50;;;19.10;70.20;;;;;;5108576;27;43502;-70
2023/10/18 04:28:00;;;;;;;1.40;1.40;;;19.10;70.20;;;;;;5108998;27;43788;-70
2023/10/18 04:30:30;;;;;;;1.40;1.40;;;19.10;70.30;;;;;;5108665;27;43447;-70
2023/10/18 04:33:00;;;;;;;1.50;1.50;;;19.00;70.30;;;;;;5108607;27;43857;-70
2023/10/18 04:35:32;;;;;;;1.30;1.30;;;19.00;70.60;;;;;;5110869;27;43460;-66
2023/10/18 04:38:03;;;;;;;1.40;1.40;;;19.00;70.50;;;;;;5110962;27;43458;-66
2023/10/18 04:40:34;;;;;;;1.50;1.50;;;19.00;70.30;;;;;;5109309;27;43417;-66
2023/10/18 04:43:06;;;;;;;1.50;1.50;;;19.00;70.40;;;;;;5103816;27;43878;-66
2023/10/18 04:45:35;;;;;;;1.67;1.67;;;19.00;70.40;;;;;;5111092;27;43377;-66
2023/10/18 04:48:14;;;;;;;1.40;1.40;;;19.00;70.70;;;;;;5109504;27;43474;-66
2023/10/18 04:50:42;;;;;;;1.37;1.37;;;19.00;70.80;;;;;;5110991;27;43776;-66
2023/10/18 04:53:14;;;;;;;1.60;1.60;;;19.10;71.20;;;;;;5110332;27;43543;-69
2023/10/18 04:55:41;;;;;;;1.70;1.70;;;19.20;70.10;;;;;;5111053;27;43339;-66
2023/10/18 04:58:15;;;;;;;1.40;1.40;;;19.30;69.70;;;;;;5111124;27;43754;-66
2023/10/18 05:00:56;;;;;;;1.40;1.40;;;19.40;69.50;;;;;;5110892;27;43477;-66
2023/10/18 05:03:30;;;;;;;1.40;1.40;;;19.40;69.40;;;;;;5110491;27;43937;-67
2023/10/18 05:05:57;;;;;;;1.50;1.50;;;19.30;69.50;;;;;;5110570;27;43374;-65
2023/10/18 05:08:25;;;;;;;1.60;1.60;;;19.20;69.60;;;;;;5110858;27;43456;-65
2023/10/18 05:11:22;;;;;;;1.67;1.67;;;19.20;69.90;;;;;;5109013;27;43390;-67
2023/10/18 05:13:44;;;;;;;1.70;1.60;;;19.10;70.10;;;;;;5110868;27;43692;-66
2023/10/18 05:16:13;;;;;;;1.50;1.50;;;19.10;70.10;;;;;;5114133;27;43433;-67
2023/10/18 05:18:44;;;;;;;1.60;1.60;;;19.10;70.10;;;;;;5114099;27;43902;-66
2023/10/18 05:21:20;;;;;;;1.63;1.63;;;19.10;70.10;;;;;;5114692;27;43492;-66
2023/10/18 05:23:50;;;;;;;1.57;1.57;;;19.00;70.10;;;;;;5112287;27;45047;-67
2023/10/18 05:26:18;;;;;;;1.70;1.70;;;19.00;70.40;;;;;;5113815;27;43460;-66
2023/10/18 05:28:49;;;;;;;1.77;1.77;;;19.00;70.30;;;;;;5112862;27;43423;-66
2023/10/18 05:34:14;;;;;;;1.60;1.60;;;19.00;70.20;;;;;;5112957;27;43866;-67
2023/10/18 05:37:13;;;;;;;1.60;1.60;;;19.00;70.30;;;;;;5110292;27;44408;-66
2023/10/18 05:42:26;;;;;;;1.60;1.60;;;19.00;71.10;;;;;;5081124;27;43491;-67
2023/10/18 05:44:54;;;;;;;1.80;1.80;;;19.20;70.10;;;;;;5112855;27;43807;-70
2023/10/18 05:47:22;;;;;;;1.67;1.67;;;19.30;69.70;;;;;;5111321;27;43398;-70
2023/10/18 05:49:53;;;;;;;1.30;1.30;;;19.40;69.40;;;;;;5111284;27;43433;-70
2023/10/18 05:52:36;;;;;;;1.40;1.40;;;19.30;69.00;;;;;;5111837;27;43913;-70
2023/10/18 05:55:08;;;;;;;1.40;1.40;;;19.30;69.10;;;;;;5095790;27;43571;-70
2023/10/18 05:57:40;;;;;;;1.60;1.60;;;19.30;69.40;;;;;;5110924;27;44013;-70
2023/10/18 06:00:17;;;;;;;1.43;1.43;;;19.20;69.50;;;;;;5109451;27;43564;-70
2023/10/18 06:02:45;;;;;;;1.77;1.77;;;19.10;69.90;;;;;;5111233;27;43365;-70
2023/10/18 06:05:15;;;;;;;1.60;1.60;;;19.10;69.80;;;;;;5108636;27;46114;-70
2023/10/18 06:07:43;;;;;;;1.77;1.77;;;19.10;69.90;;;;;;5110839;27;43302;-70
2023/10/18 06:10:16;;;;;;;1.70;1.70;;;19.10;70.00;;;;;;5110805;27;43440;-76
2023/10/18 06:12:48;;;;;;;1.70;1.70;;;19.10;70.10;;;;;;5111275;27;43478;-75
2023/10/18 06:15:30;;;;;;;1.53;1.53;;;19.00;70.30;;;;;;5110495;27;44005;-70
2023/10/18 06:18:00;;;;;;;1.50;1.50;;;19.00;70.00;;;;;;5109419;27;44382;-70
2023/10/18 06:20:30;;;;;;;1.50;1.50;;;19.00;70.20;;;;;;5108835;27;43402;-74
2023/10/18 06:23:28;;;;;;;1.57;1.57;;;19.00;70.30;;;;;;5111011;27;43279;-69
2023/10/18 06:25:57;;;;;;;1.70;1.70;;;19.00;70.40;;;;;;5105643;27;43579;-69
2023/10/18 06:28:26;;;;;;;1.70;1.63;;;19.00;70.60;;;;;;5110313;27;43839;-69
2023/10/18 06:30:56;;;;;;;1.70;1.70;;;19.00;70.40;;;;;;5108295;27;43401;-70
2023/10/18 06:33:35;;;;;;;1.73;1.73;;;19.10;70.20;;;;;;5108753;27;43918;-71
2023/10/18 06:36:12;;;;;;;1.43;1.43;;;19.20;70.40;;;;;;5106704;27;43712;-66
2023/10/18 06:38:42;;;;;;;1.60;1.60;;;19.30;69.30;;;;;;5112627;27;43468;-67
2023/10/18 06:41:18;;;;;;;1.90;1.80;;;19.30;69.10;;;;;;5112030;27;43461;-67
2023/10/18 06:43:46;;;;;;;1.57;1.57;;;19.30;69.40;;;;;;5112976;27;44015;-66
2023/10/18 06:46:22;;;;;;;1.70;1.70;;;19.20;69.50;;;;;;5111856;27;43610;-68
2023/10/18 06:48:54;;;;;;;1.53;1.53;;;19.20;70.40;;;;;;5112343;27;43451;-66
2023/10/18 06:51:42;;;;;;;1.90;1.90;;;19.10;69.90;;;;;;5112129;27;43454;-66
2023/10/18 06:54:14;;;;;;;1.70;1.70;;;19.10;69.80;;;;;;5112399;27;43414;-71
2023/10/18 06:56:46;;;;;;;1.50;1.50;;;19.10;70.10;;;;;;5110063;27;43604;-70
2023/10/18 06:59:14;;;;;;;1.70;1.60;;;19.00;70.00;;;;;;5110280;27;43401;-71
2023/10/18 07:01:53;;;;;;;1.73;1.73;;;19.00;70.10;;;;;;5109920;27;43330;-70
2023/10/18 07:04:27;;;;;;;1.67;1.67;;;19.00;70.40;;;;;;5110324;27;43478;-74
2023/10/18 07:06:57;;;;;;;1.60;1.60;;;19.00;70.30;;;;;;5097125;27;45155;-71
2023/10/18 07:09:31;;;;;;;1.60;1.60;;;19.00;70.30;;;;;;5109629;27;43409;-70
2023/10/18 07:12:03;;;;;;;1.80;1.80;;;19.00;70.30;;;;;;5109645;27;43887;-69
2023/10/18 07:14:32;;;;;;;1.80;1.80;;;18.90;70.30;;;;;;5110269;27;43405;-69
2023/10/18 07:17:04;;;;;;;1.80;1.80;;;18.90;70.50;;;;;;5109749;27;43594;-70
2023/10/18 07:19:41;;;;;;;1.80;1.80;;;19.00;70.50;;;;;;5109812;27;43951;-70
2023/10/18 07:22:17;;;;;;;1.70;1.70;;;19.00;70.10;;;;;;5108156;27;43388;-70
2023/10/18 07:24:53;;;;;;;1.90;1.80;;;19.20;69.80;;;;;;5108871;27;43827;-70
2023/10/18 07:27:29;;;;;;;1.60;1.60;;;19.30;69.40;;;;;;5109210;27;43720;-70
2023/10/18 07:29:59;;;;;;;1.70;1.70;;;19.30;69.20;;;;;;5105177;27;43419;-70
2023/10/18 07:32:28;;;;;;;1.70;1.70;;;19.20;69.40;;;;;;5106479;27;44004;-70
2023/10/18 07:35:00;;;;;;;1.53;1.53;;;19.20;69.60;;;;;;5108639;27;43490;-70
2023/10/18 07:37:40;;;;;;;1.97;1.97;;;19.10;69.70;;;;;;5108966;27;43766;-70
2023/10/18 07:40:10;;;;;;;1.70;1.70;;;19.10;70.00;;;;;;5105798;27;43530;-70
2023/10/18 07:42:43;;;;;;;1.70;1.70;;;19.00;69.70;;;;;;5109390;27;43413;-70
2023/10/18 07:45:14;;;;;;;1.60;1.60;;;19.00;70.00;;;;;;5111347;27;43568;-66
2023/10/18 07:47:43;;;;;;;1.60;1.60;;;19.00;70.10;;;;;;5111884;27;43875;-66
2023/10/18 07:52:54;;;;;;;1.80;1.80;;;19.00;70.30;;;;;;5114173;27;43765;-64
2023/10/18 07:55:23;;;;;;;1.63;1.53;;;19.00;70.50;;;;;;5114081;27;43481;-64
2023/10/18 07:57:51;;;;;;;1.60;1.60;;;19.00;70.10;;;;;;5111943;27;45763;-65
2023/10/18 08:00:21;;;;;;;1.80;1.80;;;19.10;69.90;;;;;;5111260;27;43444;-66
2023/10/18 08:02:49;;;;;;;1.90;1.90;;;19.10;69.50;;;;;;5111126;27;43306;-66
2023/10/18 08:05:19;;;;;;;2.00;2.00;;;19.10;69.80;;;;;;5111066;27;43454;-69
2023/10/18 08:07:51;;;;;;;1.80;1.80;;;19.10;70.00;;;;;;5116341;27;44106;-69
2023/10/18 08:10:21;;;;;;;1.80;1.80;;;19.10;69.90;;;;;;5095652;27;43410;-70
2023/10/18 08:13:03;;;;;;;1.53;1.53;;;19.10;69.90;;;;;;5109054;27;44028;-69
2023/10/18 08:15:34;;;;;;;1.73;1.73;;;19.10;70.10;;;;;;5109310;27;43437;-69
2023/10/18 08:18:14;;;;;;;1.93;1.93;;;19.00;70.10;;;;;;5108300;27;44943;-69
2023/10/18 08:20:56;;;;;;;1.70;1.70;;;19.00;70.30;;;;;;5107356;27;44730;-70
2023/10/18 08:23:35;;;;;;;1.80;1.70;;;19.00;70.10;;;;;;5108430;27;43358;-70
2023/10/18 08:26:05;;;;;;;1.50;1.50;;;18.90;70.30;;;;;;5101335;27;43478;-70
2023/10/18 08:28:39;;;;;;;1.70;1.60;;;18.90;70.40;;;;;;5101033;27;44963;-69
2023/10/18 08:31:26;;;;;;;1.50;1.50;;;18.90;70.40;;;;;;5108239;27;43398;-70
2023/10/18 08:33:56;;;;;;;1.60;1.60;;;18.90;70.80;;;;;;5108627;27;43445;-70
2023/10/18 08:36:30;;;;;;;2.20;2.10;;;18.90;70.70;;;;;;5108917;27;43532;-70
2023/10/18 08:38:58;;;;;;;1.73;1.73;;;19.00;70.40;;;;;;5108522;27;43618;-70
2023/10/18 08:41:32;;;;;;;1.70;1.70;;;19.10;70.10;;;;;;5108727;27;43407;-70
2023/10/18 08:44:08;;;;;;;1.80;1.80;;;19.10;69.70;;;;;;5106981;27;43431;-70
2023/10/18 08:46:39;;;;;;;1.80;1.80;;;19.10;70.60;;;;;;5107269;27;43393;-69
2023/10/18 08:49:08;;;;;;;1.90;1.90;;;19.10;70.10;;;;;;5111193;27;43911;-70
2023/10/18 08:51:36;;;;;;;1.90;1.90;;;19.10;70.00;;;;;;5112158;27;43369;-70
2023/10/18 08:54:17;;;;;;;1.70;1.70;;;19.00;70.00;;;;;;5112263;27;43357;-72
2023/10/18 08:56:48;;;;;;;1.70;1.70;;;19.00;70.00;;;;;;5130107;27;43408;-69
2023/10/18 08:59:18;;;;;;;1.97;1.97;;;19.00;70.20;;;;;;5129645;27;43593;-69
2023/10/18 09:04:31;;;;;;;1.80;1.80;;;18.90;70.10;;;;;;5128748;27;43424;-69
2023/10/18 09:07:00;;;;;;;1.70;1.70;;;18.90;70.40;;;;;;5128743;27;43432;-69
2023/10/18 09:09:35;;;;;;;1.63;1.63;;;18.90;70.40;;;;;;5128862;27;43619;-69
2023/10/18 09:12:14;;;;;;;2.00;1.90;;;18.90;70.40;;;;;;5129277;27;43468;-69
2023/10/18 09:14:50;;;;;;;1.70;1.70;;;18.90;70.60;;;;;;5126989;27;43461;-71
2023/10/18 09:17:22;;;;;;;1.67;1.67;;;18.90;70.70;;;;;;5121290;27;43292;-69
2023/10/18 09:19:53;;;;;;;1.80;1.80;;;18.80;70.60;;;;;;5126789;27;45704;-69
2023/10/18 09:22:21;;;;;;;1.70;1.70;;;18.80;70.60;;;;;;5122349;27;43474;-69
2023/10/18 09:24:49;;;;;;;1.90;1.90;;;18.80;70.60;;;;;;5114615;27;43510;-69
2023/10/18 09:27:22;;;;;;;1.70;1.70;;;18.80;70.70;;;;;;5129915;27;43337;-69
2023/10/18 09:29:52;;;;;;;1.67;1.67;;;18.80;71.10;;;;;;5127747;27;43900;-69
2023/10/18 09:32:32;;;;;;;1.90;1.90;;;18.90;70.80;;;;;;5127944;27;43445;-69
2023/10/18 09:35:06;;;;;;;2.20;2.10;;;19.00;70.30;;;;;;5129173;27;43294;-69
2023/10/18 09:37:36;;;;;;;1.43;1.40;;;19.10;69.80;;;;;;5127337;27;43512;-69
2023/10/18 09:40:05;;;;;;;1.80;1.80;;;19.20;69.50;;;;;;5128335;27;43626;-69
2023/10/18 09:42:34;;;;;;;1.83;1.83;;;19.20;69.10;;;;;;5126758;27;45007;-69
2023/10/18 09:45:03;;;;;;;1.80;1.80;;;19.20;69.30;;;;;;5129292;27;43405;-68
2023/10/18 09:47:31;;;;;;;1.80;1.77;;;19.20;69.60;;;;;;5128280;27;44530;-68
2023/10/18 09:50:06;;;;;;;1.87;1.87;;;19.10;69.70;;;;;;5128394;27;43667;-70
2023/10/18 09:52:34;;;;;;;3.20;1.80;;;19.10;70.00;;;;;;5129143;27;43328;-70
2023/10/18 09:55:04;;;;;;;1.70;1.70;;;19.00;70.70;;;;;;5128899;27;43347;-70
2023/10/18 09:57:40;;;;;;;1.83;1.83;;;19.00;70.00;;;;;;5129443;27;43409;-69
2023/10/18 10:00:11;;;;;;;2.00;1.90;;;19.00;70.10;;;;;;5127720;27;43629;-69
2023/10/18 10:02:40;;;;;;;1.80;1.80;;;19.00;70.30;;;;;;5127942;27;43383;-70
2023/10/18 10:05:24;;;;;;;1.87;1.87;;;18.90;70.30;;;;;;5120901;27;43517;-70
2023/10/18 10:07:54;;;;;;;1.80;1.80;;;18.90;70.60;;;;;;5111612;27;43430;-69
2023/10/18 10:10:34;;;;;;;1.93;1.93;;;19.00;70.60;;;;;;5101296;27;43609;-69
2023/10/18 10:13:08;;;;;;;1.87;1.77;;;19.00;70.10;;;;;;5110571;27;43354;-70
2023/10/18 10:15:37;;;;;;;1.60;1.60;;;19.10;69.90;;;;;;5108981;27;43499;-70
2023/10/18 10:18:06;;;;;;;2.17;2.17;;;19.10;69.90;;;;;;5110621;27;43446;-70
2023/10/18 10:20:40;;;;;;;1.63;1.63;;;19.00;70.10;;;;;;5098234;27;43843;-70
2023/10/18 10:23:15;;;;;;;1.80;1.80;;;19.00;70.00;;;;;;5102435;27;44140;-70
2023/10/18 10:25:49;;;;;;;1.73;1.73;;;19.00;70.00;;;;;;5113164;27;43440;-69
2023/10/18 10:31:51;;;;;;;1.83;1.83;;;19.00;70.10;;;;;;5125715;27;43606;-68
2023/10/18 10:34:26;;;;;;;2.83;2.60;;;18.90;70.50;;;;;;5128350;27;43284;-70
2023/10/18 10:37:05;;;;;;;1.90;1.80;;;18.90;70.00;;;;;;5126487;27;43368;-70
2023/10/18 10:39:35;;;;;;;2.20;2.10;;;18.90;70.10;;;;;;5128574;27;43465;-70
2023/10/18 10:42:09;;;;;;;2.10;2.00;;;18.90;69.80;;;;;;5128277;27;43894;-70
2023/10/18 10:44:57;;;;;;;2.10;2.07;;;18.90;70.00;;;;;;5127133;27;44815;-70
2023/10/18 10:47:29;;;;;;;2.07;1.97;;;18.80;70.30;;;;;;5128103;27;43458;-70
2023/10/18 10:50:00;;;;;;;1.70;1.70;;;18.90;70.40;;;;;;5128393;27;43345;-69
2023/10/18 10:52:30;;;;;;;3.23;2.10;;;18.90;70.10;;;;;;5128272;27;43968;-69
2023/10/18 10:55:05;;;;;;;2.30;2.20;;;19.00;69.80;;;;;;5127523;27;43397;-69
2023/10/18 10:57:35;;;;;;;2.00;1.90;;;19.10;69.70;;;;;;5127099;27;43499;-70
2023/10/18 11:00:22;;;;;;;3.43;1.70;;;19.00;69.60;;;;;;5128162;27;43397;-69
2023/10/18 11:02:54;;;;;;;1.83;1.83;;;19.00;70.10;;;;;;5127890;27;43938;-69
2023/10/18 11:05:25;;;;;;;1.70;1.70;;;19.00;69.70;;;;;;5126437;27;44678;-68
2023/10/18 11:07:54;;;;;;;1.83;1.83;;;19.00;69.90;;;;;;5126881;27;43378;-70
2023/10/18 11:10:22;;;;;;;1.70;1.70;;;19.00;70.00;;;;;;5127598;27;43465;-70
2023/10/18 11:12:50;;;;;;;1.73;1.73;;;19.00;70.10;;;;;;5117685;27;43682;-69
2023/10/18 11:15:27;;;;;;;1.93;1.80;;;18.90;70.40;;;;;;5118618;27;43457;-72
2023/10/18 11:18:09;;;;;;;1.83;1.83;;;18.90;70.10;;;;;;5109772;27;43348;-72
2023/10/18 11:20:49;;;;;;;1.87;1.87;;;18.90;70.30;;;;;;5108977;27;43356;-72
2023/10/18 11:23:17;;;;;;;1.70;1.70;;;18.90;70.40;;;;;;5109864;27;44027;-72
2023/10/18 11:25:46;;;;;;;2.00;1.90;;;18.90;70.50;;;;;;5109960;27;43453;-72
2023/10/18 11:28:28;;;;;;;2.00;2.00;;;18.80;70.70;;;;;;5109147;27;43460;-72
2023/10/18 11:30:58;;;;;;;1.73;1.63;;;18.90;70.80;;;;;;5110173;27;43331;-72
2023/10/18 11:33:36;;;;;;;1.70;1.70;;;19.00;70.60;;;;;;5109268;27;44964;-72
2023/10/18 11:36:08;;;;;;;2.00;2.00;;;19.10;70.20;;;;;;5109711;27;43848;-69
2023/10/18 11:38:37;;;;;;;2.00;1.90;;;19.20;69.70;;;;;;5109185;27;43384;-69
2023/10/18 11:41:11;;;;;;;1.87;1.80;;;19.20;69.40;;;;;;5108689;27;43412;-69
2023/10/18 11:43:40;;;;;;;1.90;1.90;;;19.20;69.60;;;;;;5109392;27;44417;-69
2023/10/18 11:46:11;;;;;;;1.70;1.70;;;19.10;69.70;;;;;;5109183;27;43498;-70
2023/10/18 11:48:40;;;;;;;1.80;1.80;;;19.10;69.90;;;;;;5109275;27;43472;-70
2023/10/18 11:51:11;;;;;;;2.00;1.90;;;19.00;70.00;;;;;;5109365;27;43518;-70
2023/10/18 11:53:39;;;;;;;1.90;1.90;;;19.00;70.30;;;;;;5108914;27;43858;-70
2023/10/18 11:56:08;;;;;;;2.20;2.10;;;19.00;70.30;;;;;;5109442;27;43931;-70
2023/10/18 11:58:37;;;;;;;2.10;2.03;;;18.90;70.20;;;;;;5107568;27;44002;-70
2023/10/18 12:01:18;;;;;;;2.90;2.70;;;18.90;70.40;;;;;;5108907;27;43415;-70
2023/10/18 12:03:48;;;;;;;3.77;2.80;;;18.90;70.40;;;;;;5103488;27;44054;-69
2023/10/18 12:06:21;;;;;;;3.47;3.00;;;18.80;70.70;;;;;;5109065;27;43956;-70
2023/10/18 12:09:09;;;;;;;2.90;2.70;;;18.80;70.40;;;;;;5107039;27;43413;-70
2023/10/18 12:11:38;;;;;;;3.47;3.03;;;18.90;70.60;;;;;;5109107;27;43351;-70
2023/10/18 12:14:08;;;;;;;4.13;3.27;;;18.80;70.50;;;;;;5096741;27;43743;-70
2023/10/18 12:16:41;;;;;;;4.17;3.40;;;18.80;70.60;;;;;;5108579;27;43958;-70
2023/10/18 12:19:10;;;;;;;6.03;3.73;;;18.80;70.90;;;;;;5108871;27;43505;-70
2023/10/18 12:21:38;;;;;;;5.83;3.37;;;18.80;70.80;;;;;;5109398;27;43473;-70
2023/10/18 12:24:07;;;;;;;7.57;4.17;;;18.90;70.60;;;;;;5107829;27;43880;-69
2023/10/18 12:26:40;;;;;;;7.70;4.27;;;19.10;70.40;;;;;;5108434;27;43419;-72
2023/10/18 12:29:15;;;;;;;7.27;3.97;;;19.20;70.00;;;;;;5108463;27;43529;-71
2023/10/18 12:31:52;;;;;;;7.10;4.20;;;19.20;69.60;;;;;;5109338;27;43370;-71
2023/10/18 12:34:28;;;;;;;9.17;4.27;;;19.20;69.40;;;;;;5097011;27;43850;-71
2023/10/18 12:36:58;;;;;;;8.03;4.73;;;19.10;69.70;;;;;;5108252;27;43439;-71
2023/10/18 12:39:34;;;;;;;8.00;4.90;;;19.10;69.90;;;;;;5108685;27;43405;-72
2023/10/18 12:42:04;;;;;;;8.43;4.43;;;19.00;70.10;;;;;;5108892;27;43457;-72
2023/10/18 12:44:33;;;;;;;8.90;4.53;;;19.00;70.40;;;;;;5110813;27;43912;-70
2023/10/18 12:47:09;;;;;;;6.40;4.97;;;18.90;70.30;;;;;;5126182;27;43272;-69
2023/10/18 12:49:44;;;;;;;7.03;4.80;;;18.90;70.40;;;;;;5125549;27;43402;-69
2023/10/18 12:54:54;;;;;;;10.80;5.37;;;18.90;70.50;;;;;;5118399;27;43886;-70
2023/10/18 12:57:32;;;;;;;6.83;4.90;;;18.80;70.80;;;;;;5110357;27;43350;-69
2023/10/18 13:00:13;;;;;;;9.07;5.10;;;18.80;70.60;;;;;;5125862;27;43437;-70
2023/10/18 13:02:50;;;;;;;7.73;4.70;;;18.80;70.70;;;;;;5126433;27;43394;-70
2023/10/18 13:05:19;;;;;;;6.27;4.83;;;18.80;70.70;;;;;;5120526;27;43700;-70
2023/10/18 13:07:52;;;;;;;9.30;5.30;;;18.80;70.80;;;;;;5124670;27;43379;-70
2023/10/18 13:10:29;;;;;;;10.00;5.27;;;18.80;71.00;;;;;;5125795;27;43362;-69
2023/10/18 13:12:56;;;;;;;9.37;5.33;;;18.80;71.00;;;;;;5126130;27;43355;-70
2023/10/18 13:15:25;;;;;;;8.93;4.83;;;18.90;70.70;;;;;;5120949;27;43646;-69
2023/10/18 13:17:56;;;;;;;9.53;5.20;;;19.00;70.40;;;;;;5123685;27;45290;-69
2023/10/18 13:20:25;;;;;;;9.93;4.77;;;19.10;69.90;;;;;;5122211;27;43390;-70
2023/10/18 13:22:55;;;;;;;10.47;5.20;;;19.20;69.70;;;;;;5125521;27;43537;-69
2023/10/18 13:25:25;;;;;;;5.97;4.60;;;19.10;69.60;;;;;;5126345;27;43672;-70
2023/10/18 13:27:54;;;;;;;7.10;4.30;;;19.10;69.80;;;;;;5123832;27;44349;-70
2023/10/18 13:30:39;;;;;;;6.30;4.20;;;19.00;70.00;;;;;;5119595;27;43388;-70
2023/10/18 13:33:12;;;;;;;7.53;4.70;;;19.00;70.30;;;;;;5126172;27;43409;-69